ADDS METAR Data INFO
IDs: Format: Raw Decoded Include TAF

Data at: 0426 UTC 21 Nov 2017

KBYG 210353Z AUTO 32005KT 10SM FEW090 SCT120 06/M02 A2981 RMK AO2 SLP078 T00611017
KBYG 210253Z AUTO 34004KT 10SM OVC090 06/M01 A2980 RMK AO2 SLP075 60000 T00611011 53015
KBYG 210153Z AUTO 03010KT 10SM OVC095 07/M03 A2976 RMK AO2 RAB28E40 SLP062 P0000 T00671028
KBYG 210053Z AUTO 03003KT 10SM FEW085 OVC100 09/M06 A2975 RMK AO2 SLP045 T00891061
KBYG 202353Z AUTO 00000KT 10SM OVC110 08/M04 A2975 RMK AO2 SLP056 T00831044 10122 20078 53008
KBYG 202253Z AUTO 13006KT 10SM BKN100 09/M04 A2973 RMK AO2 SLP042 T00941044
KBYG 202153Z AUTO 13008KT 10SM FEW110 11/M04 A2972 RMK AO2 SLP038 T01111039
KBYG 202053Z AUTO 13003KT 10SM CLR 09/M04 A2972 RMK AO2 SLP049 T00941044 53003
KBYG 201953Z AUTO 16006KT 10SM CLR 09/M03 A2970 RMK AO2 SLP042 T00941033
KBYG 201853Z AUTO 10SM FEW100 12/M07 A2970 RMK AO2 SLP035 T01171067
KBYG 201753Z AUTO 24012G19KT 10SM SCT100 10/M07 A2971 RMK AO2 SLP047 T01001072 10128 20067 53022
KBYG 201653Z AUTO 24006KT 10SM CLR 11/M08 A2968 RMK AO2 SLP039 T01061083
KBYG 201553Z AUTO 21012G20KT 10SM FEW110 10/M09 A2964 RMK AO2 SLP023 T01001089
KBYG 201453Z AUTO 33015G21KT 10SM CLR 11/M09 A2963 RMK AO2 SLP018 T01061094 55006
KBYG 201353Z AUTO 24010G22KT 10SM CLR 09/M10 A2961 RMK AO2 PK WND 23027/1330 SLP017 T00941100
KBYG 201253Z AUTO 27008G25KT 10SM CLR 13/M13 A2966 RMK AO2 SLP028 T01281133 $
KBYG 201153Z AUTO 00000KT 10SM FEW120 08/M11 A2965 RMK AO2 SLP030 T00831106 10122 20033 58007 $
KBYG 201053Z AUTO 29003KT 10SM CLR 12/M16 A2966 RMK AO2 SLP025 T01171156 $
KBYG 200953Z AUTO 35006KT 10SM CLR 09/M12 A2967 RMK AO2 SLP035 T00941122 $
KBYG 200853Z AUTO 36008KT 10SM CLR 06/M09 A2968 RMK AO2 SLP053 T00561089 58009 $
KBYG 200753Z AUTO 28005KT 10SM CLR 06/M08 A2969 RMK AO2 SLP052 T00611083 $
KBYG 200653Z AUTO 29006KT 10SM CLR 08/M12 A2970 RMK AO2 SLP054 T00831122 401001056 $
KBYG 200553Z AUTO 26009KT 10SM CLR 04/M08 A2971 RMK AO2 SLP061 T00441083 10100 20006 56013 $
KBYG 200453Z AUTO 27006KT 10SM CLR 04/M09 A2971 RMK AO2 SLP070 T00391094 $
KBYG 200353Z AUTO VRB06KT 10SM CLR 06/M12 A2972 RMK AO2 SLP065 T00561122 $
KBYG 200253Z AUTO 00000KT 10SM CLR 05/M14 A2975 RMK AO2 SLP070 T00501144 58012 $
KBYG 200153Z AUTO 29009KT 10SM CLR 04/M13 A2977 RMK AO2 SLP086 T00391128 $
KBYG 200053Z AUTO 00000KT 10SM CLR 03/M10 A2978 RMK AO2 SLP096 T00281100 $
KBYG 192353Z AUTO 27008KT 10SM CLR 04/M11 A2979 RMK AO2 SLP098 T00441106 10083 20000 56009 $
KBYG 192253Z AUTO 32008KT 10SM CLR 06/M11 A2980 RMK AO2 SLP101 T00561106 $
KBYG 192153Z AUTO VRB03KT 10SM CLR 03/M08 A2980 RMK AO2 SLP104 T00331083 $
KBYG 192053Z AUTO 26008KT 10SM CLR 01/M07 A2982 RMK AO2 SLP116 T00111072 56026 $
KBYG 191953Z AUTO 00000KT 10SM CLR 03/M06 A2984 RMK AO2 SLP117 T00281061 $
KBYG 191853Z AUTO 24003KT 10SM CLR 02/M06 A2988 RMK AO2 SLP136 T00171061 $
KBYG 191753Z AUTO 00000KT 10SM CLR 03/M06 A2991 RMK AO2 SLP144 T00331061 10061 21017 58014 $
KBYG 191653Z AUTO 27005KT 10SM CLR 01/M07 A2994 RMK AO2 SLP162 T00061072 $